sensor_id;sensor_type;location;lat;lon;timestamp;temperature;humidity
59923;DHT22;45778;51.142;3.732;2023-02-05T00:02:05;8.20;99.90
59923;DHT22;45778;51.142;3.732;2023-02-05T00:04:32;8.20;99.90
59923;DHT22;45778;51.142;3.732;2023-02-05T00:06:59;8.10;99.90
59923;DHT22;45778;51.142;3.732;2023-02-05T00:09:25;8.10;99.90
59923;DHT22;45778;51.142;3.732;2023-02-05T00:11:53;8.10;99.90
59923;DHT22;45778;51.142;3.732;2023-02-05T00:14:19;8.10;99.90
59923;DHT22;45778;51.142;3.732;2023-02-05T00:16:44;8.00;99.90
59923;DHT22;45778;51.142;3.732;2023-02-05T00:19:10;7.90;99.90
59923;DHT22;45778;51.142;3.732;2023-02-05T00:21:36;7.90;99.90
59923;DHT22;45778;51.142;3.732;2023-02-05T00:24:01;8.00;99.90
59923;DHT22;45778;51.142;3.732;2023-02-05T00:26:27;7.90;99.90
59923;DHT22;45778;51.142;3.732;2023-02-05T00:28:53;8.00;99.90
59923;DHT22;45778;51.142;3.732;2023-02-05T00:31:20;7.90;99.90
59923;DHT22;45778;51.142;3.732;2023-02-05T00:33:47;7.90;99.90
59923;DHT22;45778;51.142;3.732;2023-02-05T00:36:14;7.80;99.90
59923;DHT22;45778;51.142;3.732;2023-02-05T00:38:41;7.80;99.90
59923;DHT22;45778;51.142;3.732;2023-02-05T00:41:07;7.90;99.90
59923;DHT22;45778;51.142;3.732;2023-02-05T00:43:33;8.00;99.90
59923;DHT22;45778;51.142;3.732;2023-02-05T00:45:58;7.90;99.90
59923;DHT22;45778;51.142;3.732;2023-02-05T00:48:24;8.00;99.90
59923;DHT22;45778;51.142;3.732;2023-02-05T00:50:51;8.00;99.90
59923;DHT22;45778;51.142;3.732;2023-02-05T00:53:19;7.90;99.90
59923;DHT22;45778;51.142;3.732;2023-02-05T00:55:45;7.90;99.90
59923;DHT22;45778;51.142;3.732;2023-02-05T00:58:11;7.80;99.90
59923;DHT22;45778;51.142;3.732;2023-02-05T01:00:37;7.80;99.90
59923;DHT22;45778;51.142;3.732;2023-02-05T01:03:03;7.90;99.90
59923;DHT22;45778;51.142;3.732;2023-02-05T01:05:28;7.80;99.90
59923;DHT22;45778;51.142;3.732;2023-02-05T01:07:57;7.80;99.90
59923;DHT22;45778;51.142;3.732;2023-02-05T01:10:23;7.80;99.90
59923;DHT22;45778;51.142;3.732;2023-02-05T01:12:49;7.80;99.90
59923;DHT22;45778;51.142;3.732;2023-02-05T01:15:15;8.00;99.90
59923;DHT22;45778;51.142;3.732;2023-02-05T01:17:41;7.90;99.90
59923;DHT22;45778;51.142;3.732;2023-02-05T01:20:08;7.80;99.90
59923;DHT22;45778;51.142;3.732;2023-02-05T01:22:34;7.80;99.90
59923;DHT22;45778;51.142;3.732;2023-02-05T01:25:00;7.80;99.90
59923;DHT22;45778;51.142;3.732;2023-02-05T01:27:26;7.70;99.90
59923;DHT22;45778;51.142;3.732;2023-02-05T01:29:52;7.70;99.90
59923;DHT22;45778;51.142;3.732;2023-02-05T01:32:17;7.70;99.90
59923;DHT22;45778;51.142;3.732;2023-02-05T01:34:44;7.90;99.90
59923;DHT22;45778;51.142;3.732;2023-02-05T01:37:10;7.80;99.90
59923;DHT22;45778;51.142;3.732;2023-02-05T01:39:36;8.00;99.90
59923;DHT22;45778;51.142;3.732;2023-02-05T01:42:04;8.20;99.90
59923;DHT22;45778;51.142;3.732;2023-02-05T01:44:31;8.00;99.90
59923;DHT22;45778;51.142;3.732;2023-02-05T01:46:56;7.90;99.90
59923;DHT22;45778;51.142;3.732;2023-02-05T01:49:27;7.80;99.90
59923;DHT22;45778;51.142;3.732;2023-02-05T01:51:54;7.80;99.90
59923;DHT22;45778;51.142;3.732;2023-02-05T01:54:23;7.80;99.90
59923;DHT22;45778;51.142;3.732;2023-02-05T01:56:56;7.80;99.90
59923;DHT22;45778;51.142;3.732;2023-02-05T01:59:28;7.70;99.90
59923;DHT22;45778;51.142;3.732;2023-02-05T02:01:55;7.70;99.90
59923;DHT22;45778;51.142;3.732;2023-02-05T02:04:44;7.70;99.90
59923;DHT22;45778;51.142;3.732;2023-02-05T02:07:16;7.60;99.90
59923;DHT22;45778;51.142;3.732;2023-02-05T02:09:44;7.60;99.90
59923;DHT22;45778;51.142;3.732;2023-02-05T02:12:12;7.70;99.90
59923;DHT22;45778;51.142;3.732;2023-02-05T02:14:41;7.70;99.90
59923;DHT22;45778;51.142;3.732;2023-02-05T02:17:11;7.80;99.90
59923;DHT22;45778;51.142;3.732;2023-02-05T02:20:06;7.80;99.90
59923;DHT22;45778;51.142;3.732;2023-02-05T02:27:56;7.80;99.90
59923;DHT22;45778;51.142;3.732;2023-02-05T02:30:39;7.70;99.90
59923;DHT22;45778;51.142;3.732;2023-02-05T02:38:56;7.70;99.90
59923;DHT22;45778;51.142;3.732;2023-02-05T02:43:57;7.60;99.90
59923;DHT22;45778;51.142;3.732;2023-02-05T02:46:29;7.60;99.90
59923;DHT22;45778;51.142;3.732;2023-02-05T02:49:00;7.60;99.90
59923;DHT22;45778;51.142;3.732;2023-02-05T02:51:28;7.50;99.90
59923;DHT22;45778;51.142;3.732;2023-02-05T02:53:57;7.60;99.90
59923;DHT22;45778;51.142;3.732;2023-02-05T02:56:25;7.60;99.90
59923;DHT22;45778;51.142;3.732;2023-02-05T02:59:18;7.50;99.90
59923;DHT22;45778;51.142;3.732;2023-02-05T03:01:49;7.70;99.90
59923;DHT22;45778;51.142;3.732;2023-02-05T03:04:55;7.60;99.90
59923;DHT22;45778;51.142;3.732;2023-02-05T03:07:28;7.60;99.90
59923;DHT22;45778;51.142;3.732;2023-02-05T03:10:00;7.50;99.90
59923;DHT22;45778;51.142;3.732;2023-02-05T03:12:27;7.60;99.90
59923;DHT22;45778;51.142;3.732;2023-02-05T03:14:53;7.60;99.90
59923;DHT22;45778;51.142;3.732;2023-02-05T03:17:21;7.50;99.90
59923;DHT22;45778;51.142;3.732;2023-02-05T03:19:52;7.60;99.90
59923;DHT22;45778;51.142;3.732;2023-02-05T03:22:20;7.50;99.90
59923;DHT22;45778;51.142;3.732;2023-02-05T03:24:46;7.50;99.90
59923;DHT22;45778;51.142;3.732;2023-02-05T03:27:11;7.40;99.90
59923;DHT22;45778;51.142;3.732;2023-02-05T03:29:39;7.50;99.90
59923;DHT22;45778;51.142;3.732;2023-02-05T03:37:39;7.50;99.90
59923;DHT22;45778;51.142;3.732;2023-02-05T03:46:04;7.50;99.90
59923;DHT22;45778;51.142;3.732;2023-02-05T03:53:48;7.50;99.90
59923;DHT22;45778;51.142;3.732;2023-02-05T03:56:24;7.60;99.90
59923;DHT22;45778;51.142;3.732;2023-02-05T03:58:54;7.60;99.90
59923;DHT22;45778;51.142;3.732;2023-02-05T04:01:21;7.70;99.90
59923;DHT22;45778;51.142;3.732;2023-02-05T04:03:48;7.60;99.90
59923;DHT22;45778;51.142;3.732;2023-02-05T04:06:14;7.60;99.90
59923;DHT22;45778;51.142;3.732;2023-02-05T04:08:39;7.60;99.90
59923;DHT22;45778;51.142;3.732;2023-02-05T04:11:05;7.70;99.90
59923;DHT22;45778;51.142;3.732;2023-02-05T04:13:31;7.80;99.90
59923;DHT22;45778;51.142;3.732;2023-02-05T04:15:57;7.70;99.90
59923;DHT22;45778;51.142;3.732;2023-02-05T04:18:23;7.80;99.90
59923;DHT22;45778;51.142;3.732;2023-02-05T04:20:49;7.70;99.90
59923;DHT22;45778;51.142;3.732;2023-02-05T04:23:14;7.70;99.90
59923;DHT22;45778;51.142;3.732;2023-02-05T04:25:40;7.70;99.90
59923;DHT22;45778;51.142;3.732;2023-02-05T04:28:06;7.70;99.90
59923;DHT22;45778;51.142;3.732;2023-02-05T04:30:32;7.60;99.90
59923;DHT22;45778;51.142;3.732;2023-02-05T04:32:58;7.50;99.90
59923;DHT22;45778;51.142;3.732;2023-02-05T04:35:24;7.60;99.90
59923;DHT22;45778;51.142;3.732;2023-02-05T04:37:50;7.60;99.90
59923;DHT22;45778;51.142;3.732;2023-02-05T04:40:16;7.60;99.90
59923;DHT22;45778;51.142;3.732;2023-02-05T04:42:41;7.50;99.90
59923;DHT22;45778;51.142;3.732;2023-02-05T04:45:08;7.60;99.90
59923;DHT22;45778;51.142;3.732;2023-02-05T04:47:34;7.50;99.90
59923;DHT22;45778;51.142;3.732;2023-02-05T04:50:00;7.40;99.90
59923;DHT22;45778;51.142;3.732;2023-02-05T04:52:27;7.40;99.90
59923;DHT22;45778;51.142;3.732;2023-02-05T04:54:52;7.50;99.90
59923;DHT22;45778;51.142;3.732;2023-02-05T04:57:18;7.60;99.90
59923;DHT22;45778;51.142;3.732;2023-02-05T04:59:44;7.60;99.90
59923;DHT22;45778;51.142;3.732;2023-02-05T05:02:09;7.60;99.90
59923;DHT22;45778;51.142;3.732;2023-02-05T05:04:35;7.60;99.90
59923;DHT22;45778;51.142;3.732;2023-02-05T05:07:01;7.70;99.90
59923;DHT22;45778;51.142;3.732;2023-02-05T05:09:27;7.80;99.90
59923;DHT22;45778;51.142;3.732;2023-02-05T05:11:54;7.90;99.90
59923;DHT22;45778;51.142;3.732;2023-02-05T05:14:21;8.00;99.90
59923;DHT22;45778;51.142;3.732;2023-02-05T05:16:48;8.00;99.90
59923;DHT22;45778;51.142;3.732;2023-02-05T05:19:14;8.00;99.90
59923;DHT22;45778;51.142;3.732;2023-02-05T05:21:40;7.90;99.90
59923;DHT22;45778;51.142;3.732;2023-02-05T05:24:06;7.80;99.90
59923;DHT22;45778;51.142;3.732;2023-02-05T05:26:32;7.80;99.90
59923;DHT22;45778;51.142;3.732;2023-02-05T05:28:58;7.70;99.90
59923;DHT22;45778;51.142;3.732;2023-02-05T05:31:23;7.70;99.90
59923;DHT22;45778;51.142;3.732;2023-02-05T05:33:50;7.70;99.90
59923;DHT22;45778;51.142;3.732;2023-02-05T05:36:16;7.70;99.90
59923;DHT22;45778;51.142;3.732;2023-02-05T05:38:42;7.70;99.90
59923;DHT22;45778;51.142;3.732;2023-02-05T05:41:17;7.70;99.90
59923;DHT22;45778;51.142;3.732;2023-02-05T05:44:02;7.70;99.90
59923;DHT22;45778;51.142;3.732;2023-02-05T05:46:27;7.70;99.90
59923;DHT22;45778;51.142;3.732;2023-02-05T05:48:55;7.70;99.90
59923;DHT22;45778;51.142;3.732;2023-02-05T05:51:23;7.70;99.90
59923;DHT22;45778;51.142;3.732;2023-02-05T05:53:49;7.70;99.90
59923;DHT22;45778;51.142;3.732;2023-02-05T05:56:16;7.70;99.90
59923;DHT22;45778;51.142;3.732;2023-02-05T05:58:42;7.60;99.90
59923;DHT22;45778;51.142;3.732;2023-02-05T06:01:09;7.60;99.90
59923;DHT22;45778;51.142;3.732;2023-02-05T06:03:35;7.60;99.90
59923;DHT22;45778;51.142;3.732;2023-02-05T06:06:04;7.60;99.90
59923;DHT22;45778;51.142;3.732;2023-02-05T06:08:31;7.70;99.90
59923;DHT22;45778;51.142;3.732;2023-02-05T06:10:57;7.60;99.90
59923;DHT22;45778;51.142;3.732;2023-02-05T06:13:23;7.70;99.90
59923;DHT22;45778;51.142;3.732;2023-02-05T06:15:49;7.60;99.90
59923;DHT22;45778;51.142;3.732;2023-02-05T06:18:17;7.60;99.90
59923;DHT22;45778;51.142;3.732;2023-02-05T06:20:43;7.50;99.90
59923;DHT22;45778;51.142;3.732;2023-02-05T06:23:09;7.50;99.90
59923;DHT22;45778;51.142;3.732;2023-02-05T06:25:35;7.40;99.90
59923;DHT22;45778;51.142;3.732;2023-02-05T06:28:01;7.20;99.90
59923;DHT22;45778;51.142;3.732;2023-02-05T06:30:26;7.20;99.90
59923;DHT22;45778;51.142;3.732;2023-02-05T06:32:52;7.10;99.90
59923;DHT22;45778;51.142;3.732;2023-02-05T06:35:18;7.00;99.90
59923;DHT22;45778;51.142;3.732;2023-02-05T06:37:44;6.90;99.90
59923;DHT22;45778;51.142;3.732;2023-02-05T06:40:10;6.90;99.90
59923;DHT22;45778;51.142;3.732;2023-02-05T06:42:36;6.90;99.90
59923;DHT22;45778;51.142;3.732;2023-02-05T06:45:02;6.90;99.90
59923;DHT22;45778;51.142;3.732;2023-02-05T06:47:28;6.90;99.90
59923;DHT22;45778;51.142;3.732;2023-02-05T06:49:54;7.00;99.90
59923;DHT22;45778;51.142;3.732;2023-02-05T06:52:19;7.00;99.90
59923;DHT22;45778;51.142;3.732;2023-02-05T06:54:45;7.10;99.90
59923;DHT22;45778;51.142;3.732;2023-02-05T06:57:11;7.00;99.90
59923;DHT22;45778;51.142;3.732;2023-02-05T06:59:37;7.00;99.90
59923;DHT22;45778;51.142;3.732;2023-02-05T07:02:03;7.10;99.90
59923;DHT22;45778;51.142;3.732;2023-02-05T07:04:29;7.10;99.90
59923;DHT22;45778;51.142;3.732;2023-02-05T07:06:57;7.20;99.90
59923;DHT22;45778;51.142;3.732;2023-02-05T07:09:24;7.10;99.90
59923;DHT22;45778;51.142;3.732;2023-02-05T07:11:49;7.10;99.90
59923;DHT22;45778;51.142;3.732;2023-02-05T07:14:15;7.00;99.90
59923;DHT22;45778;51.142;3.732;2023-02-05T07:16:41;7.00;99.90
59923;DHT22;45778;51.142;3.732;2023-02-05T07:19:06;7.10;99.90
59923;DHT22;45778;51.142;3.732;2023-02-05T07:21:32;6.90;99.90
59923;DHT22;45778;51.142;3.732;2023-02-05T07:23:58;6.90;99.90
59923;DHT22;45778;51.142;3.732;2023-02-05T07:26:23;6.90;99.90
59923;DHT22;45778;51.142;3.732;2023-02-05T07:28:49;6.80;99.90
59923;DHT22;45778;51.142;3.732;2023-02-05T07:31:17;6.80;99.90
59923;DHT22;45778;51.142;3.732;2023-02-05T07:33:44;6.80;99.90
59923;DHT22;45778;51.142;3.732;2023-02-05T07:36:13;6.80;99.90
59923;DHT22;45778;51.142;3.732;2023-02-05T07:38:41;6.80;99.90
59923;DHT22;45778;51.142;3.732;2023-02-05T07:41:09;6.80;99.90
59923;DHT22;45778;51.142;3.732;2023-02-05T07:43:36;6.80;99.90
59923;DHT22;45778;51.142;3.732;2023-02-05T07:46:09;6.90;99.90
59923;DHT22;45778;51.142;3.732;2023-02-05T07:48:35;6.90;99.90
59923;DHT22;45778;51.142;3.732;2023-02-05T07:51:01;6.90;99.90
59923;DHT22;45778;51.142;3.732;2023-02-05T07:53:27;6.80;99.90
59923;DHT22;45778;51.142;3.732;2023-02-05T07:55:53;6.90;99.90
59923;DHT22;45778;51.142;3.732;2023-02-05T07:58:19;6.90;99.90
59923;DHT22;45778;51.142;3.732;2023-02-05T08:00:45;6.90;99.90
59923;DHT22;45778;51.142;3.732;2023-02-05T08:03:11;6.90;99.90
59923;DHT22;45778;51.142;3.732;2023-02-05T08:05:37;7.00;99.90
59923;DHT22;45778;51.142;3.732;2023-02-05T08:08:04;7.00;99.90
59923;DHT22;45778;51.142;3.732;2023-02-05T08:10:30;7.10;99.90
59923;DHT22;45778;51.142;3.732;2023-02-05T08:12:56;7.10;99.90
59923;DHT22;45778;51.142;3.732;2023-02-05T08:15:21;7.10;99.90
59923;DHT22;45778;51.142;3.732;2023-02-05T08:17:47;7.20;99.90
59923;DHT22;45778;51.142;3.732;2023-02-05T08:20:13;7.30;99.90
59923;DHT22;45778;51.142;3.732;2023-02-05T08:22:41;7.20;99.90
59923;DHT22;45778;51.142;3.732;2023-02-05T08:25:09;7.20;99.90
59923;DHT22;45778;51.142;3.732;2023-02-05T08:27:37;7.20;99.90
59923;DHT22;45778;51.142;3.732;2023-02-05T08:30:04;7.30;99.90
59923;DHT22;45778;51.142;3.732;2023-02-05T08:32:30;7.30;99.90
59923;DHT22;45778;51.142;3.732;2023-02-05T08:34:56;7.40;99.90
59923;DHT22;45778;51.142;3.732;2023-02-05T08:37:23;7.40;99.90
59923;DHT22;45778;51.142;3.732;2023-02-05T08:39:49;7.50;99.90
59923;DHT22;45778;51.142;3.732;2023-02-05T08:42:15;7.60;99.90
59923;DHT22;45778;51.142;3.732;2023-02-05T08:44:41;7.50;99.90
59923;DHT22;45778;51.142;3.732;2023-02-05T08:47:07;7.60;99.90
59923;DHT22;45778;51.142;3.732;2023-02-05T08:49:33;7.60;99.90
59923;DHT22;45778;51.142;3.732;2023-02-05T08:51:58;7.60;99.90
59923;DHT22;45778;51.142;3.732;2023-02-05T08:54:24;7.60;99.90
59923;DHT22;45778;51.142;3.732;2023-02-05T08:56:50;7.60;99.90
59923;DHT22;45778;51.142;3.732;2023-02-05T08:59:17;7.50;99.90
59923;DHT22;45778;51.142;3.732;2023-02-05T09:01:43;7.60;99.90
59923;DHT22;45778;51.142;3.732;2023-02-05T09:04:12;7.70;99.90
59923;DHT22;45778;51.142;3.732;2023-02-05T09:06:38;7.70;99.90
59923;DHT22;45778;51.142;3.732;2023-02-05T09:09:04;7.70;99.90
59923;DHT22;45778;51.142;3.732;2023-02-05T09:11:30;7.70;99.90
59923;DHT22;45778;51.142;3.732;2023-02-05T09:13:57;7.70;99.90
59923;DHT22;45778;51.142;3.732;2023-02-05T09:16:23;7.80;99.90
59923;DHT22;45778;51.142;3.732;2023-02-05T09:18:49;7.80;99.90
59923;DHT22;45778;51.142;3.732;2023-02-05T09:21:15;7.80;99.90
59923;DHT22;45778;51.142;3.732;2023-02-05T09:23:40;7.90;99.90
59923;DHT22;45778;51.142;3.732;2023-02-05T09:26:07;7.90;99.90
59923;DHT22;45778;51.142;3.732;2023-02-05T09:28:34;7.90;99.90
59923;DHT22;45778;51.142;3.732;2023-02-05T09:31:08;7.90;99.90
59923;DHT22;45778;51.142;3.732;2023-02-05T09:33:34;7.90;99.90
59923;DHT22;45778;51.142;3.732;2023-02-05T09:36:08;7.80;99.90
59923;DHT22;45778;51.142;3.732;2023-02-05T09:38:35;7.70;99.90
59923;DHT22;45778;51.142;3.732;2023-02-05T09:51:51;8.00;99.90
59923;DHT22;45778;51.142;3.732;2023-02-05T09:54:28;8.10;99.90
59923;DHT22;45778;51.142;3.732;2023-02-05T09:56:58;8.00;99.90
59923;DHT22;45778;51.142;3.732;2023-02-05T09:59:26;8.00;99.90
59923;DHT22;45778;51.142;3.732;2023-02-05T10:04:21;8.00;99.90
59923;DHT22;45778;51.142;3.732;2023-02-05T10:09:33;8.10;99.90
59923;DHT22;45778;51.142;3.732;2023-02-05T10:24:13;8.20;99.90
59923;DHT22;45778;51.142;3.732;2023-02-05T10:26:14;8.20;99.90
59923;DHT22;45778;51.142;3.732;2023-02-05T10:37:42;8.60;99.90
59923;DHT22;45778;51.142;3.732;2023-02-05T10:40:20;8.60;99.90
59923;DHT22;45778;51.142;3.732;2023-02-05T10:42:54;8.50;99.90
59923;DHT22;45778;51.142;3.732;2023-02-05T10:45:26;8.50;99.90
59923;DHT22;45778;51.142;3.732;2023-02-05T10:51:23;8.90;99.90
59923;DHT22;45778;51.142;3.732;2023-02-05T10:53:52;8.70;99.90
59923;DHT22;45778;51.142;3.732;2023-02-05T10:56:18;8.60;99.90
59923;DHT22;45778;51.142;3.732;2023-02-05T11:01:23;9.10;99.90
59923;DHT22;45778;51.142;3.732;2023-02-05T11:04:05;9.20;99.90
59923;DHT22;45778;51.142;3.732;2023-02-05T11:06:37;9.00;99.90
59923;DHT22;45778;51.142;3.732;2023-02-05T11:11:55;9.10;99.90
59923;DHT22;45778;51.142;3.732;2023-02-05T11:14:36;9.10;99.90
59923;DHT22;45778;51.142;3.732;2023-02-05T11:19:39;9.20;99.90
59923;DHT22;45778;51.142;3.732;2023-02-05T11:22:05;9.20;99.90
59923;DHT22;45778;51.142;3.732;2023-02-05T11:24:33;9.40;99.90
59923;DHT22;45778;51.142;3.732;2023-02-05T11:29:44;9.40;99.90
59923;DHT22;45778;51.142;3.732;2023-02-05T11:32:30;9.50;99.90
59923;DHT22;45778;51.142;3.732;2023-02-05T11:35:25;9.80;99.90
59923;DHT22;45778;51.142;3.732;2023-02-05T11:40:29;9.40;99.90
59923;DHT22;45778;51.142;3.732;2023-02-05T11:43:25;9.30;99.90
59923;DHT22;45778;51.142;3.732;2023-02-05T11:45:52;9.40;99.90
59923;DHT22;45778;51.142;3.732;2023-02-05T11:48:43;9.70;99.90
59923;DHT22;45778;51.142;3.732;2023-02-05T11:51:13;9.90;99.90
59923;DHT22;45778;51.142;3.732;2023-02-05T11:54:18;9.50;99.90
59923;DHT22;45778;51.142;3.732;2023-02-05T11:57:05;9.50;99.90
59923;DHT22;45778;51.142;3.732;2023-02-05T11:59:31;9.60;99.90
59923;DHT22;45778;51.142;3.732;2023-02-05T12:02:34;9.60;99.90
59923;DHT22;45778;51.142;3.732;2023-02-05T12:05:18;9.80;99.90
59923;DHT22;45778;51.142;3.732;2023-02-05T12:07:51;9.90;99.90
59923;DHT22;45778;51.142;3.732;2023-02-05T12:13:08;9.90;99.90
59923;DHT22;45778;51.142;3.732;2023-02-05T12:15:48;10.00;99.90
59923;DHT22;45778;51.142;3.732;2023-02-05T12:26:50;10.40;99.90
59923;DHT22;45778;51.142;3.732;2023-02-05T12:29:36;10.20;99.90
59923;DHT22;45778;51.142;3.732;2023-02-05T12:41:18;10.20;99.90
59923;DHT22;45778;51.142;3.732;2023-02-05T12:43:18;10.50;99.90
59923;DHT22;45778;51.142;3.732;2023-02-05T12:45:59;10.50;99.90
59923;DHT22;45778;51.142;3.732;2023-02-05T13:02:00;11.20;99.90
59923;DHT22;45778;51.142;3.732;2023-02-05T13:04:36;11.10;99.90
59923;DHT22;45778;51.142;3.732;2023-02-05T13:07:11;10.60;99.90
59923;DHT22;45778;51.142;3.732;2023-02-05T13:12:15;9.80;99.90
59923;DHT22;45778;51.142;3.732;2023-02-05T13:15:50;9.90;99.90
59923;DHT22;45778;51.142;3.732;2023-02-05T13:18:13;10.20;99.90
59923;DHT22;45778;51.142;3.732;2023-02-05T13:20:43;10.70;99.90
59923;DHT22;45778;51.142;3.732;2023-02-05T13:23:30;10.50;99.90
59923;DHT22;45778;51.142;3.732;2023-02-05T13:26:16;10.20;99.90
59923;DHT22;45778;51.142;3.732;2023-02-05T13:29:07;10.30;99.90
59923;DHT22;45778;51.142;3.732;2023-02-05T13:31:41;10.30;99.90
59923;DHT22;45778;51.142;3.732;2023-02-05T13:34:12;10.30;99.90
59923;DHT22;45778;51.142;3.732;2023-02-05T13:40:03;10.40;99.90
59923;DHT22;45778;51.142;3.732;2023-02-05T13:51:14;10.20;99.90
59923;DHT22;45778;51.142;3.732;2023-02-05T13:56:29;11.10;99.90
59923;DHT22;45778;51.142;3.732;2023-02-05T13:59:13;11.30;99.90
59923;DHT22;45778;51.142;3.732;2023-02-05T14:01:47;11.10;99.90
59923;DHT22;45778;51.142;3.732;2023-02-05T14:04:24;10.50;99.90
59923;DHT22;45778;51.142;3.732;2023-02-05T14:07:05;10.30;99.90
59923;DHT22;45778;51.142;3.732;2023-02-05T14:09:36;10.60;99.90
59923;DHT22;45778;51.142;3.732;2023-02-05T14:12:21;10.40;99.90
59923;DHT22;45778;51.142;3.732;2023-02-05T14:20:34;9.80;99.90
59923;DHT22;45778;51.142;3.732;2023-02-05T14:23:02;9.50;99.90
59923;DHT22;45778;51.142;3.732;2023-02-05T14:30:58;10.50;99.90
59923;DHT22;45778;51.142;3.732;2023-02-05T14:33:43;11.30;99.90
59923;DHT22;45778;51.142;3.732;2023-02-05T14:38:54;11.40;99.90
59923;DHT22;45778;51.142;3.732;2023-02-05T14:43:56;11.60;99.90
59923;DHT22;45778;51.142;3.732;2023-02-05T14:48:59;11.40;99.90
59923;DHT22;45778;51.142;3.732;2023-02-05T14:51:50;11.80;99.90
59923;DHT22;45778;51.142;3.732;2023-02-05T14:54:19;12.40;99.90
59923;DHT22;45778;51.142;3.732;2023-02-05T14:57:09;12.70;99.90
59923;DHT22;45778;51.142;3.732;2023-02-05T15:00:05;12.70;99.90
59923;DHT22;45778;51.142;3.732;2023-02-05T15:03:07;12.80;99.90
59923;DHT22;45778;51.142;3.732;2023-02-05T15:08:40;13.30;99.90
59923;DHT22;45778;51.142;3.732;2023-02-05T15:11:23;13.20;99.90
59923;DHT22;45778;51.142;3.732;2023-02-05T15:19:33;12.20;99.90
59923;DHT22;45778;51.142;3.732;2023-02-05T15:22:04;11.30;99.90
59923;DHT22;45778;51.142;3.732;2023-02-05T15:24:34;10.60;99.90
59923;DHT22;45778;51.142;3.732;2023-02-05T15:27:05;10.20;99.90
59923;DHT22;45778;51.142;3.732;2023-02-05T15:29:34;9.90;99.90
59923;DHT22;45778;51.142;3.732;2023-02-05T15:35:06;9.60;99.90
59923;DHT22;45778;51.142;3.732;2023-02-05T15:37:42;9.80;99.90
59923;DHT22;45778;51.142;3.732;2023-02-05T15:40:22;9.70;99.90
59923;DHT22;45778;51.142;3.732;2023-02-05T15:42:53;9.50;99.90
59923;DHT22;45778;51.142;3.732;2023-02-05T15:45:24;9.30;99.90
59923;DHT22;45778;51.142;3.732;2023-02-05T15:53:02;9.00;99.90
59923;DHT22;45778;51.142;3.732;2023-02-05T15:55:32;8.80;99.90
59923;DHT22;45778;51.142;3.732;2023-02-05T15:58:03;8.70;99.90
59923;DHT22;45778;51.142;3.732;2023-02-05T16:00:31;8.70;99.90
59923;DHT22;45778;51.142;3.732;2023-02-05T16:03:00;8.60;99.90
59923;DHT22;45778;51.142;3.732;2023-02-05T16:05:28;8.50;99.90
59923;DHT22;45778;51.142;3.732;2023-02-05T16:07:54;8.50;99.90
59923;DHT22;45778;51.142;3.732;2023-02-05T16:10:28;8.50;99.90
59923;DHT22;45778;51.142;3.732;2023-02-05T16:15:37;8.60;99.90
59923;DHT22;45778;51.142;3.732;2023-02-05T16:18:07;8.30;99.90
59923;DHT22;45778;51.142;3.732;2023-02-05T16:20:39;8.40;99.90
59923;DHT22;45778;51.142;3.732;2023-02-05T16:23:10;8.30;99.90
59923;DHT22;45778;51.142;3.732;2023-02-05T16:25:54;8.20;99.90
59923;DHT22;45778;51.142;3.732;2023-02-05T16:28:28;8.10;99.90
59923;DHT22;45778;51.142;3.732;2023-02-05T16:30:57;7.90;99.90
59923;DHT22;45778;51.142;3.732;2023-02-05T16:33:31;8.00;99.90
59923;DHT22;45778;51.142;3.732;2023-02-05T16:35:58;8.00;99.90
59923;DHT22;45778;51.142;3.732;2023-02-05T16:38:24;8.10;99.90
59923;DHT22;45778;51.142;3.732;2023-02-05T16:40:56;7.90;99.90
59923;DHT22;45778;51.142;3.732;2023-02-05T16:43:38;7.80;99.90
59923;DHT22;45778;51.142;3.732;2023-02-05T16:48:37;7.80;99.90
59923;DHT22;45778;51.142;3.732;2023-02-05T16:51:04;7.80;99.90
59923;DHT22;45778;51.142;3.732;2023-02-05T16:53:32;7.80;99.90
59923;DHT22;45778;51.142;3.732;2023-02-05T16:58:44;7.50;99.90
59923;DHT22;45778;51.142;3.732;2023-02-05T17:01:11;7.50;99.90
59923;DHT22;45778;51.142;3.732;2023-02-05T17:03:39;7.40;99.90
59923;DHT22;45778;51.142;3.732;2023-02-05T17:06:13;7.30;99.90
59923;DHT22;45778;51.142;3.732;2023-02-05T17:08:41;7.30;99.90
59923;DHT22;45778;51.142;3.732;2023-02-05T17:11:34;7.20;99.90
59923;DHT22;45778;51.142;3.732;2023-02-05T17:14:31;7.20;99.90
59923;DHT22;45778;51.142;3.732;2023-02-05T17:16:58;7.10;99.90
59923;DHT22;45778;51.142;3.732;2023-02-05T17:19:29;7.20;99.90
59923;DHT22;45778;51.142;3.732;2023-02-05T17:24:44;7.10;99.90
59923;DHT22;45778;51.142;3.732;2023-02-05T17:29:51;7.20;99.90
59923;DHT22;45778;51.142;3.732;2023-02-05T17:32:18;7.20;99.90
59923;DHT22;45778;51.142;3.732;2023-02-05T17:34:45;7.10;99.90
59923;DHT22;45778;51.142;3.732;2023-02-05T17:37:12;7.10;99.90
59923;DHT22;45778;51.142;3.732;2023-02-05T17:39:39;7.10;99.90
59923;DHT22;45778;51.142;3.732;2023-02-05T17:42:06;7.00;99.90
59923;DHT22;45778;51.142;3.732;2023-02-05T17:44:34;7.10;99.90
59923;DHT22;45778;51.142;3.732;2023-02-05T17:47:01;7.20;99.90
59923;DHT22;45778;51.142;3.732;2023-02-05T17:49:27;7.00;99.90
59923;DHT22;45778;51.142;3.732;2023-02-05T17:51:52;6.90;99.90
59923;DHT22;45778;51.142;3.732;2023-02-05T17:54:23;6.90;99.90
59923;DHT22;45778;51.142;3.732;2023-02-05T17:56:57;6.90;99.90
59923;DHT22;45778;51.142;3.732;2023-02-05T17:59:25;6.90;99.90
59923;DHT22;45778;51.142;3.732;2023-02-05T18:01:51;6.90;99.90
59923;DHT22;45778;51.142;3.732;2023-02-05T18:04:17;6.90;99.90
59923;DHT22;45778;51.142;3.732;2023-02-05T18:06:44;6.80;99.90
59923;DHT22;45778;51.142;3.732;2023-02-05T18:09:11;6.80;99.90
59923;DHT22;45778;51.142;3.732;2023-02-05T18:11:38;6.80;99.90
59923;DHT22;45778;51.142;3.732;2023-02-05T18:14:04;6.80;99.90
59923;DHT22;45778;51.142;3.732;2023-02-05T18:16:31;6.80;99.90
59923;DHT22;45778;51.142;3.732;2023-02-05T18:18:56;6.90;99.90
59923;DHT22;45778;51.142;3.732;2023-02-05T18:21:22;6.80;99.90
59923;DHT22;45778;51.142;3.732;2023-02-05T18:23:49;6.90;99.90
59923;DHT22;45778;51.142;3.732;2023-02-05T18:26:17;6.90;99.90
59923;DHT22;45778;51.142;3.732;2023-02-05T18:28:43;6.90;99.90
59923;DHT22;45778;51.142;3.732;2023-02-05T18:31:11;6.90;99.90
59923;DHT22;45778;51.142;3.732;2023-02-05T18:33:37;6.90;99.90
59923;DHT22;45778;51.142;3.732;2023-02-05T18:36:08;6.90;99.90
59923;DHT22;45778;51.142;3.732;2023-02-05T18:38:35;6.80;99.90
59923;DHT22;45778;51.142;3.732;2023-02-05T18:41:12;6.90;99.90
59923;DHT22;45778;51.142;3.732;2023-02-05T18:43:39;6.80;99.90
59923;DHT22;45778;51.142;3.732;2023-02-05T18:46:13;6.80;99.90
59923;DHT22;45778;51.142;3.732;2023-02-05T18:48:39;6.70;99.90
59923;DHT22;45778;51.142;3.732;2023-02-05T18:51:10;6.70;99.90
59923;DHT22;45778;51.142;3.732;2023-02-05T18:53:37;6.90;99.90
59923;DHT22;45778;51.142;3.732;2023-02-05T18:56:11;6.80;99.90
59923;DHT22;45778;51.142;3.732;2023-02-05T18:58:38;6.70;99.90
59923;DHT22;45778;51.142;3.732;2023-02-05T19:01:13;6.50;99.90
59923;DHT22;45778;51.142;3.732;2023-02-05T19:03:39;6.40;99.90
59923;DHT22;45778;51.142;3.732;2023-02-05T19:06:11;6.50;99.90